Accueil
METAR-TAF:

METAR-TAF

Aéroports :

Lusaka, Zambie

Aéroport international de Lusaka

latitude: 15-19-51S, longitude: 028-27-09E, altitude: 1152 m

Observation

Le bulletin a été fait il y a 3 heures et 5 minutes, à 00:00 UTC
Vent 2 kt de sud/sud-ouest
Température 15°C
Humidité 55%
Pression 1019 hPa
Visibilité 10 km ou plus
pas de nuages en-dessous de 1500 mètres et pas de cumulonimbus.

METAR: FLKK 240000Z 20002KT CAVOK 15/06 Q1019

Heure: 05:05 (03:05 UTC)


TAF: absent

Observations et prévisions météorologiques de plus de 4000 aéroports (messages METAR et TAF).

Les stations disponibles sont représentées par des disques jaunes et rouges sur la carte.

Passer la souris dessus pour voir le nom de la station.

Cliquer dessus pour voir les observations et prévisions météorologiques.

Pour changer de carte: cliquez sur les boutons verts avec une croix noire pour zoomer, sur le bouton vert avec un tiret pour effectuer un zoom arrière, ou sur les flèches vertes pour les cartes adjacentes.


METAR-TAF: